createdAt,value
2024-04-03T00:00:54.297Z,34.20
2024-04-03T00:01:54.236Z,34.21
2024-04-03T00:02:54.202Z,34.19
2024-04-03T00:03:54.215Z,34.22
2024-04-03T00:04:54.226Z,34.19
2024-04-03T00:05:54.262Z,34.21
2024-04-03T00:06:54.290Z,34.22
2024-04-03T00:07:54.317Z,34.23
2024-04-03T00:08:54.336Z,34.19
2024-04-03T00:09:54.344Z,34.20
2024-04-03T00:10:54.356Z,34.21
2024-04-03T00:11:54.359Z,34.21
2024-04-03T00:12:54.372Z,34.23
2024-04-03T00:13:54.379Z,34.20
2024-04-03T00:14:54.386Z,34.20
2024-04-03T00:15:54.406Z,34.20
2024-04-03T00:16:54.426Z,34.20
2024-04-03T00:17:54.463Z,34.22
2024-04-03T00:18:54.465Z,34.21
2024-04-03T00:19:54.469Z,34.19
2024-04-03T00:20:54.495Z,34.21
2024-04-03T00:21:54.512Z,34.19
2024-04-03T00:22:54.550Z,34.18
2024-04-03T00:23:54.551Z,34.20
2024-04-03T00:24:54.574Z,34.22
2024-04-03T00:25:54.593Z,34.20
2024-04-03T00:26:54.597Z,34.20
2024-04-03T00:27:54.639Z,34.19
2024-04-03T00:28:54.640Z,34.20
2024-04-03T00:29:54.658Z,34.22
2024-04-03T00:30:54.684Z,34.22
2024-04-03T00:31:54.699Z,34.20
2024-04-03T00:32:54.709Z,34.20
2024-04-03T00:33:54.738Z,34.19
2024-04-03T00:34:54.750Z,34.21
2024-04-03T00:35:54.772Z,34.20
2024-04-03T00:36:54.787Z,34.19
2024-04-03T00:37:54.814Z,34.20
2024-04-03T00:38:54.814Z,34.19
2024-04-03T00:39:54.828Z,34.20
2024-04-03T00:40:54.841Z,34.23
2024-04-03T00:41:54.860Z,34.19
2024-04-03T00:42:54.887Z,34.21
2024-04-03T00:43:54.918Z,34.19
2024-04-03T00:44:54.924Z,34.21
2024-04-03T00:45:55.677Z,34.21
2024-04-03T00:46:54.962Z,34.21
2024-04-03T00:47:54.985Z,34.21
2024-04-03T00:48:55.002Z,34.19
2024-04-03T00:49:55.010Z,34.19
2024-04-03T00:50:55.035Z,34.21
2024-04-03T00:51:55.050Z,34.20
2024-04-03T00:52:55.054Z,34.20
2024-04-03T00:53:55.071Z,34.21
2024-04-03T00:54:55.081Z,34.19
2024-04-03T00:55:55.100Z,34.19
2024-04-03T00:56:55.114Z,34.20
2024-04-03T00:57:55.150Z,34.21
2024-04-03T00:58:55.159Z,34.21
2024-04-03T00:59:55.259Z,34.22
2024-04-03T01:00:55.197Z,34.22
2024-04-03T01:01:55.222Z,34.21
2024-04-03T01:02:55.224Z,34.20
2024-04-03T01:03:55.248Z,34.21
2024-04-03T01:04:55.256Z,34.23
2024-04-03T01:05:55.271Z,34.22
2024-04-03T01:06:55.282Z,34.21
2024-04-03T01:07:55.309Z,34.20
2024-04-03T01:08:55.325Z,34.20
2024-04-03T01:09:55.335Z,34.19
2024-04-03T01:10:55.354Z,34.22
2024-04-03T01:11:55.365Z,34.21
2024-04-03T01:12:55.384Z,34.22
2024-04-03T01:13:55.396Z,34.21
2024-04-03T01:14:55.409Z,34.20
2024-04-03T01:15:55.420Z,34.24
2024-04-03T01:16:55.425Z,34.22
2024-04-03T01:17:55.446Z,34.22
2024-04-03T01:18:55.467Z,34.20
2024-04-03T01:19:55.477Z,34.24
2024-04-03T01:20:55.494Z,34.24
2024-04-03T01:21:55.506Z,34.24
2024-04-03T01:22:55.520Z,34.25
2024-04-03T01:23:55.538Z,34.23
2024-04-03T01:24:55.572Z,34.23
2024-04-03T01:25:55.561Z,34.24
2024-04-03T01:26:55.587Z,34.24
2024-04-03T01:27:55.608Z,34.22
2024-04-03T01:28:55.623Z,34.26
2024-04-03T01:29:55.644Z,34.24
2024-04-03T01:30:55.671Z,34.24
2024-04-03T01:31:55.675Z,34.25
2024-04-03T01:32:55.688Z,34.24
2024-04-03T01:33:55.710Z,34.25
2024-04-03T01:34:55.726Z,34.23
2024-04-03T01:35:55.736Z,34.22
2024-04-03T01:36:55.783Z,34.25
2024-04-03T01:37:55.780Z,34.22
2024-04-03T01:38:55.808Z,34.23
2024-04-03T01:39:55.832Z,34.23
2024-04-03T01:40:55.835Z,34.27
2024-04-03T01:41:55.860Z,34.25
2024-04-03T01:42:55.886Z,34.25
2024-04-03T01:43:55.906Z,34.24
2024-04-03T01:44:55.923Z,34.24
2024-04-03T01:45:55.960Z,34.26
2024-04-03T01:46:55.965Z,34.26
2024-04-03T01:47:56.010Z,34.25
2024-04-03T01:48:56.018Z,34.25
2024-04-03T01:49:56.041Z,34.26
2024-04-03T01:50:56.078Z,34.24
2024-04-03T01:51:56.082Z,34.25
2024-04-03T01:52:56.106Z,34.26
2024-04-03T01:53:56.157Z,34.26
2024-04-03T01:54:56.159Z,34.25
2024-04-03T01:55:56.193Z,34.27
2024-04-03T01:56:56.193Z,34.26
2024-04-03T01:57:56.212Z,34.25
2024-04-03T01:58:56.239Z,34.25
2024-04-03T01:59:57.207Z,34.26
2024-04-03T02:00:56.288Z,34.24
2024-04-03T02:01:56.298Z,34.27
2024-04-03T02:02:56.342Z,34.26
2024-04-03T02:03:56.402Z,34.27
2024-04-03T02:04:56.372Z,34.26
2024-04-03T02:05:56.389Z,34.27
2024-04-03T02:06:56.424Z,34.24
2024-04-03T02:07:56.432Z,34.27
2024-04-03T02:08:56.443Z,34.23
2024-04-03T02:09:56.469Z,34.22
2024-04-03T02:10:56.511Z,34.21
2024-04-03T02:11:56.511Z,34.24
2024-04-03T02:12:56.553Z,34.25
2024-04-03T02:13:56.549Z,34.23
2024-04-03T02:14:56.578Z,34.26
2024-04-03T02:15:56.595Z,34.25
2024-04-03T02:16:56.607Z,34.26
2024-04-03T02:17:56.885Z,34.28
2024-04-03T02:18:56.655Z,34.26
2024-04-03T02:19:56.665Z,34.26
2024-04-03T02:20:56.688Z,34.27
2024-04-03T02:21:56.720Z,34.27
2024-04-03T02:22:56.740Z,34.25
2024-04-03T02:23:57.827Z,34.27
2024-04-03T02:24:57.777Z,34.28
2024-04-03T02:25:56.773Z,34.26
2024-04-03T02:26:56.793Z,34.25
2024-04-03T02:27:56.795Z,34.27
2024-04-03T02:28:56.815Z,34.26
2024-04-03T02:29:56.827Z,34.25
2024-04-03T02:30:56.804Z,34.26
2024-04-03T02:31:56.812Z,34.26
2024-04-03T02:32:56.839Z,34.26
2024-04-03T02:33:56.836Z,34.25
2024-04-03T02:34:56.869Z,34.26
2024-04-03T02:35:56.846Z,34.24
2024-04-03T02:36:56.858Z,34.26
2024-04-03T02:37:56.863Z,34.24
2024-04-03T02:38:56.874Z,34.25
2024-04-03T02:39:56.902Z,34.26
2024-04-03T02:40:56.876Z,34.26
2024-04-03T02:41:56.900Z,34.25
2024-04-03T02:42:56.892Z,34.24
2024-04-03T02:43:56.907Z,34.24
2024-04-03T02:44:56.901Z,34.25
2024-04-03T02:45:56.905Z,34.27
2024-04-03T02:46:56.918Z,34.26
2024-04-03T02:47:56.920Z,34.26
2024-04-03T02:48:56.926Z,34.25
2024-04-03T02:49:56.937Z,34.26
2024-04-03T02:50:56.989Z,34.27
2024-04-03T02:51:56.946Z,34.24
2024-04-03T02:52:56.973Z,34.25
2024-04-03T02:53:57.004Z,34.26
2024-04-03T02:54:57.022Z,34.26
2024-04-03T02:55:57.060Z,34.25
2024-04-03T02:56:57.059Z,34.29
2024-04-03T02:57:57.078Z,34.25
2024-04-03T02:58:57.118Z,34.26
2024-04-03T02:59:57.119Z,34.26
2024-04-03T03:00:57.150Z,34.29
2024-04-03T03:01:57.168Z,34.30
2024-04-03T03:02:57.215Z,34.29
2024-04-03T03:03:57.224Z,34.30
2024-04-03T03:04:57.260Z,34.27
2024-04-03T03:05:57.270Z,34.28
2024-04-03T03:06:57.299Z,34.27
2024-04-03T03:07:57.313Z,34.27
2024-04-03T03:08:57.338Z,34.26
2024-04-03T03:09:57.355Z,34.27
2024-04-03T03:10:57.379Z,34.25
2024-04-03T03:11:57.405Z,34.26
2024-04-03T03:12:57.434Z,34.25
2024-04-03T03:13:57.448Z,34.25
2024-04-03T03:14:58.238Z,34.23
2024-04-03T03:15:57.466Z,34.23
2024-04-03T03:16:57.491Z,34.21
2024-04-03T03:17:57.518Z,34.22
2024-04-03T03:18:57.533Z,34.21
2024-04-03T03:19:57.554Z,34.19
2024-04-03T03:20:57.566Z,34.20
2024-04-03T03:21:57.604Z,34.18
2024-04-03T03:22:57.592Z,34.17
2024-04-03T03:23:57.626Z,34.18
2024-04-03T03:24:57.624Z,34.14
2024-04-03T03:25:57.639Z,34.13
2024-04-03T03:26:57.651Z,34.14
2024-04-03T03:27:57.667Z,34.11
2024-04-03T03:28:57.702Z,34.09
2024-04-03T03:29:57.693Z,34.09
2024-04-03T03:30:57.723Z,34.10
2024-04-03T03:31:57.747Z,34.10
2024-04-03T03:32:57.820Z,34.06
2024-04-03T03:33:57.819Z,34.07
2024-04-03T03:34:57.825Z,34.06
2024-04-03T03:35:57.840Z,34.05
2024-04-03T03:36:57.849Z,34.03
2024-04-03T03:37:57.863Z,34.05
2024-04-03T03:38:57.883Z,34.02
2024-04-03T03:39:57.895Z,34.02
2024-04-03T03:40:57.911Z,34.00
2024-04-03T03:41:57.895Z,34.00
2024-04-03T03:42:57.892Z,34.01
2024-04-03T03:43:57.922Z,34.00
2024-04-03T03:44:57.951Z,34.01
2024-04-03T03:45:57.964Z,33.99
2024-04-03T03:46:57.974Z,33.99
2024-04-03T03:47:58.026Z,33.98
2024-04-03T03:48:58.023Z,33.98
2024-04-03T03:49:58.029Z,33.99
2024-04-03T03:50:58.057Z,34.01
2024-04-03T03:51:58.074Z,33.99
2024-04-03T03:52:58.144Z,33.96
2024-04-03T03:53:58.189Z,33.97
2024-04-03T03:54:58.196Z,33.97
2024-04-03T03:55:58.224Z,33.95
2024-04-03T03:56:58.277Z,33.96
2024-04-03T03:57:58.303Z,33.96
2024-04-03T03:58:58.317Z,33.96
2024-04-03T03:59:58.319Z,33.94
2024-04-03T04:00:58.318Z,33.93
2024-04-03T04:01:58.359Z,33.92
2024-04-03T04:02:58.333Z,33.91
2024-04-03T04:03:58.339Z,33.92
2024-04-03T04:04:58.357Z,33.92
2024-04-03T04:05:58.389Z,33.91
2024-04-03T04:06:58.404Z,33.90
2024-04-03T04:07:58.427Z,33.92
2024-04-03T04:08:58.438Z,33.90
2024-04-03T04:09:58.432Z,33.91
2024-04-03T04:10:58.450Z,33.91
2024-04-03T04:11:58.465Z,33.92
2024-04-03T04:12:58.475Z,33.91
2024-04-03T04:13:58.493Z,33.92
2024-04-03T04:14:58.510Z,33.90
2024-04-03T04:15:58.532Z,33.90
2024-04-03T04:16:58.563Z,33.91
2024-04-03T04:17:58.629Z,33.90
2024-04-03T04:18:58.660Z,33.92
2024-04-03T04:19:58.726Z,33.89
2024-04-03T04:20:58.721Z,33.92
2024-04-03T04:21:58.788Z,33.91
2024-04-03T04:22:58.799Z,33.90
2024-04-03T04:23:58.802Z,33.91
2024-04-03T04:24:58.770Z,33.92
2024-04-03T04:25:58.806Z,33.90
2024-04-03T04:26:58.772Z,33.90
2024-04-03T04:27:58.756Z,33.91
2024-04-03T04:28:58.757Z,33.90
2024-04-03T04:29:58.786Z,33.89
2024-04-03T04:30:58.880Z,33.91
2024-04-03T04:31:58.841Z,33.89
2024-04-03T04:32:58.855Z,33.92
2024-04-03T04:33:58.844Z,33.89
2024-04-03T04:35:00.933Z,33.92
2024-04-03T04:35:58.895Z,33.92
2024-04-03T04:36:58.838Z,33.89
2024-04-03T04:37:58.884Z,33.90
2024-04-03T04:38:58.895Z,33.90
2024-04-03T04:39:58.838Z,33.91
2024-04-03T04:40:58.891Z,33.90
2024-04-03T04:41:58.828Z,33.90
2024-04-03T04:42:58.837Z,33.90
2024-04-03T04:43:58.872Z,33.91
2024-04-03T04:44:58.837Z,33.92
2024-04-03T04:45:58.835Z,33.92
2024-04-03T04:46:58.804Z,33.91
2024-04-03T04:47:58.815Z,33.92
2024-04-03T04:48:58.817Z,33.91
2024-04-03T04:49:58.849Z,33.90
2024-04-03T04:50:58.807Z,33.90
2024-04-03T04:51:58.869Z,33.92
2024-04-03T04:52:58.808Z,33.92
2024-04-03T04:53:58.869Z,33.93
2024-04-03T04:54:58.812Z,33.91
2024-04-03T04:55:58.848Z,33.92
2024-04-03T04:56:58.887Z,33.91
2024-04-03T04:57:58.837Z,33.92
2024-04-03T04:59:06.172Z,33.95
2024-04-03T05:00:06.192Z,33.94
2024-04-03T05:01:06.175Z,33.93
2024-04-03T05:02:06.184Z,33.93
2024-04-03T05:03:06.208Z,33.91
2024-04-03T05:04:06.177Z,33.92
2024-04-03T05:05:06.175Z,33.91
2024-04-03T05:06:06.181Z,33.90
2024-04-03T05:07:06.166Z,33.91
2024-04-03T05:08:06.164Z,33.90
2024-04-03T05:09:06.178Z,33.91
2024-04-03T05:10:06.177Z,33.93
2024-04-03T05:11:06.188Z,33.90
2024-04-03T05:12:06.173Z,33.91
2024-04-03T05:13:06.177Z,33.90
2024-04-03T05:14:06.187Z,33.91
2024-04-03T05:15:06.215Z,33.91
2024-04-03T05:16:06.198Z,33.91
2024-04-03T05:17:08.216Z,33.89
2024-04-03T05:18:06.208Z,33.90
2024-04-03T05:19:06.218Z,33.91
2024-04-03T05:20:06.215Z,33.89
2024-04-03T05:21:06.244Z,33.89
2024-04-03T05:22:06.223Z,33.90
2024-04-03T05:23:06.732Z,33.92
2024-04-03T05:24:06.254Z,33.93
2024-04-03T05:25:06.237Z,34.06
2024-04-03T05:26:06.229Z,34.21
2024-04-03T05:27:06.226Z,34.24
2024-04-03T05:28:06.778Z,34.62
2024-04-03T05:29:06.252Z,35.17
2024-04-03T05:30:06.292Z,35.45
2024-04-03T05:31:07.226Z,35.59
2024-04-03T05:32:06.782Z,35.30
2024-04-03T05:33:06.303Z,34.58
2024-04-03T05:34:07.713Z,33.69
2024-04-03T05:35:07.252Z,31.35
2024-04-03T05:36:06.295Z,30.93
2024-04-03T05:37:06.348Z,30.90
2024-04-03T05:38:06.310Z,29.77
2024-04-03T05:39:06.393Z,29.08
2024-04-03T05:40:06.578Z,28.94
2024-04-03T05:41:12.959Z,28.95
2024-04-03T05:42:07.372Z,28.99
2024-04-03T05:43:06.397Z,29.29
2024-04-03T05:44:06.428Z,29.38
2024-04-03T05:45:06.456Z,29.19
2024-04-03T05:46:06.471Z,29.62
2024-04-03T05:47:06.510Z,28.87
2024-04-03T05:48:06.522Z,28.65
2024-04-03T05:49:06.560Z,28.60
2024-04-03T05:50:07.301Z,28.73
2024-04-03T05:51:06.608Z,28.44
2024-04-03T05:52:06.635Z,28.33
2024-04-03T05:53:06.676Z,28.37
2024-04-03T05:54:06.714Z,28.47
2024-04-03T05:55:06.780Z,28.47
2024-04-03T05:56:06.865Z,28.99
2024-04-03T05:57:06.955Z,28.94
2024-04-03T05:58:07.126Z,28.75
2024-04-03T05:59:07.130Z,28.38
2024-04-03T06:00:07.235Z,28.49
2024-04-03T06:01:07.297Z,28.39
2024-04-03T06:02:07.378Z,28.45
2024-04-03T06:03:07.445Z,28.43
2024-04-03T06:04:07.504Z,28.25
2024-04-03T06:05:07.554Z,28.31
2024-04-03T06:06:07.590Z,27.79
2024-04-03T06:07:07.665Z,27.78
2024-04-03T06:08:07.671Z,27.94
2024-04-03T06:09:07.699Z,27.97
2024-04-03T06:10:07.738Z,27.89
2024-04-03T06:11:07.817Z,27.65
2024-04-03T06:12:07.901Z,28.09
2024-04-03T06:13:07.990Z,28.58
2024-04-03T06:14:08.061Z,29.51
2024-04-03T06:15:08.119Z,29.21
2024-04-03T06:16:08.186Z,29.10
2024-04-03T06:17:08.223Z,29.39
2024-04-03T06:18:08.288Z,29.61
2024-04-03T06:19:08.295Z,29.85
2024-04-03T06:20:08.336Z,30.22
2024-04-03T06:21:08.352Z,30.24
2024-04-03T06:22:08.422Z,30.35
2024-04-03T06:23:08.483Z,30.47
2024-04-03T06:24:08.549Z,30.69
2024-04-03T06:25:08.627Z,30.65
2024-04-03T06:26:08.642Z,31.02
2024-04-03T06:27:08.685Z,31.32
2024-04-03T06:28:09.229Z,31.53
2024-04-03T06:29:08.767Z,31.72
2024-04-03T06:30:08.792Z,32.09
2024-04-03T06:31:08.855Z,32.20
2024-04-03T06:32:08.855Z,32.67
2024-04-03T06:33:08.867Z,32.91
2024-04-03T06:34:08.899Z,33.33
2024-04-03T06:35:08.926Z,33.67
2024-04-03T06:36:09.808Z,33.69
2024-04-03T06:37:12.325Z,33.88
2024-04-03T06:38:08.941Z,34.10
2024-04-03T06:39:08.929Z,33.71
2024-04-03T06:40:08.920Z,32.97
2024-04-03T06:41:08.916Z,30.37
2024-04-03T06:42:08.925Z,29.20
2024-04-03T06:43:08.914Z,28.63
2024-04-03T06:44:08.913Z,28.73
2024-04-03T06:45:08.959Z,29.22
2024-04-03T06:46:08.959Z,29.09
2024-04-03T06:47:08.925Z,29.77
2024-04-03T06:48:08.961Z,29.00
2024-04-03T06:49:08.946Z,29.01
2024-04-03T06:50:08.941Z,28.98
2024-04-03T06:51:08.936Z,28.75
2024-04-03T06:52:08.949Z,28.58
2024-04-03T06:53:08.944Z,28.89
2024-04-03T06:54:08.954Z,28.59
2024-04-03T06:55:08.950Z,28.28
2024-04-03T06:56:08.954Z,28.18
2024-04-03T06:57:08.961Z,28.14
2024-04-03T06:58:09.248Z,28.45
2024-04-03T06:59:09.021Z,28.44
2024-04-03T07:00:09.974Z,28.72
2024-04-03T07:01:08.972Z,28.48
2024-04-03T07:02:08.971Z,28.07
2024-04-03T07:03:08.991Z,27.94
2024-04-03T07:04:08.989Z,27.89
2024-04-03T07:05:09.018Z,27.97
2024-04-03T07:06:09.006Z,28.48
2024-04-03T07:07:09.019Z,28.72
2024-04-03T07:08:09.014Z,28.47
2024-04-03T07:09:09.056Z,28.72
2024-04-03T07:10:09.165Z,29.85
2024-04-03T07:11:09.817Z,30.10
2024-04-03T07:12:09.238Z,30.53
2024-04-03T07:13:09.286Z,31.08
2024-04-03T07:14:09.333Z,31.22
2024-04-03T07:15:09.355Z,31.34
2024-04-03T07:16:10.262Z,31.42
2024-04-03T07:17:09.394Z,31.74
2024-04-03T07:18:09.413Z,32.41
2024-04-03T07:19:09.445Z,32.10
2024-04-03T07:20:09.448Z,32.11
2024-04-03T07:21:09.494Z,32.37
2024-04-03T07:22:09.456Z,33.02
2024-04-03T07:23:09.463Z,32.30
2024-04-03T07:24:09.471Z,29.79
2024-04-03T07:25:09.485Z,28.12
2024-04-03T07:26:09.528Z,27.73
2024-04-03T07:27:09.568Z,27.98
2024-04-03T07:28:09.861Z,29.17
2024-04-03T07:29:09.700Z,29.31
2024-04-03T07:30:09.763Z,29.58
2024-04-03T07:31:09.838Z,29.88
2024-04-03T07:32:09.895Z,30.96
2024-04-03T07:33:09.932Z,31.00
2024-04-03T07:34:09.988Z,31.76
2024-04-03T07:35:10.015Z,31.39
2024-04-03T07:36:10.071Z,31.56
2024-04-03T07:37:10.064Z,31.60
2024-04-03T07:38:10.083Z,31.76
2024-04-03T07:39:13.361Z,31.96
2024-04-03T07:40:10.096Z,31.99
2024-04-03T07:41:10.100Z,32.14
2024-04-03T07:42:10.110Z,32.25
2024-04-03T07:43:10.099Z,32.34
2024-04-03T07:44:10.096Z,32.46
2024-04-03T07:45:10.093Z,32.62
2024-04-03T07:46:10.087Z,32.79
2024-04-03T07:47:10.080Z,32.84
2024-04-03T07:48:10.134Z,32.97
2024-04-03T07:49:10.076Z,32.96
2024-04-03T07:50:10.074Z,33.11
2024-04-03T07:51:10.064Z,31.92
2024-04-03T07:52:10.059Z,29.79
2024-04-03T07:53:10.062Z,28.78
2024-04-03T07:54:10.067Z,28.39
2024-04-03T07:55:10.075Z,28.01
2024-04-03T07:56:10.081Z,27.85
2024-04-03T07:57:10.097Z,27.83
2024-04-03T07:58:10.103Z,27.95
2024-04-03T07:59:10.130Z,28.19
2024-04-03T08:00:11.765Z,28.68
2024-04-03T08:01:10.768Z,28.51
2024-04-03T08:02:10.204Z,28.74
2024-04-03T08:03:14.687Z,29.27
2024-04-03T08:04:11.190Z,29.00
2024-04-03T08:05:10.203Z,29.34
2024-04-03T08:06:10.843Z,29.61
2024-04-03T08:07:10.210Z,29.05
2024-04-03T08:08:12.798Z,28.73
2024-04-03T08:09:10.270Z,28.94
2024-04-03T08:10:10.252Z,28.73
2024-04-03T08:11:10.244Z,28.87
2024-04-03T08:12:10.258Z,28.49
2024-04-03T08:13:10.272Z,28.08
2024-04-03T08:14:13.169Z,27.94
2024-04-03T08:15:10.292Z,29.20
2024-04-03T08:16:10.293Z,30.90
2024-04-03T08:17:10.339Z,30.66
2024-04-03T08:18:10.315Z,30.90
2024-04-03T08:19:10.872Z,31.75
2024-04-03T08:20:11.691Z,30.71
2024-04-03T08:21:10.330Z,29.59
2024-04-03T08:22:10.326Z,28.67
2024-04-03T08:23:10.329Z,27.86
2024-04-03T08:24:11.275Z,27.55
2024-04-03T08:25:10.346Z,27.38
2024-04-03T08:26:10.357Z,26.92
2024-04-03T08:27:10.369Z,27.02
2024-04-03T08:28:10.380Z,26.80
2024-04-03T08:29:10.400Z,25.91
2024-04-03T08:30:10.414Z,25.85
2024-04-03T08:31:10.458Z,25.94
2024-04-03T08:32:10.437Z,25.74
2024-04-03T08:33:10.861Z,25.29
2024-04-03T08:34:10.976Z,25.07
2024-04-03T08:35:11.285Z,24.99
2024-04-03T08:36:10.494Z,24.92
2024-04-03T08:37:10.514Z,24.60
2024-04-03T08:38:10.529Z,24.67
2024-04-03T08:39:10.532Z,24.59
2024-04-03T08:40:10.556Z,24.38
2024-04-03T08:41:10.567Z,24.17
2024-04-03T08:42:10.578Z,24.06
2024-04-03T08:43:10.598Z,23.98
2024-04-03T08:44:10.646Z,23.96
2024-04-03T08:45:10.642Z,23.99
2024-04-03T08:46:10.708Z,24.04
2024-04-03T08:47:10.769Z,23.98
2024-04-03T08:48:10.837Z,24.01
2024-04-03T08:49:12.406Z,23.99
2024-04-03T08:50:10.994Z,23.99
2024-04-03T08:51:11.064Z,24.02
2024-04-03T08:52:11.145Z,23.92
2024-04-03T08:53:11.213Z,23.86
2024-04-03T08:54:11.302Z,23.89
2024-04-03T08:55:11.383Z,23.86
2024-04-03T08:56:11.488Z,23.89
2024-04-03T08:57:11.541Z,23.89
2024-04-03T08:58:11.617Z,23.95
2024-04-03T08:59:11.707Z,23.94
2024-04-03T09:00:11.770Z,23.96
2024-04-03T09:01:11.865Z,24.01
2024-04-03T09:02:11.937Z,24.06
2024-04-03T09:03:12.038Z,24.04
2024-04-03T09:04:12.112Z,24.08
2024-04-03T09:05:12.206Z,24.06
2024-04-03T09:06:12.261Z,24.09
2024-04-03T09:07:12.334Z,24.10
2024-04-03T09:08:12.433Z,24.14
2024-04-03T09:09:12.500Z,24.10
2024-04-03T09:10:12.590Z,24.14
2024-04-03T09:11:12.673Z,24.21
2024-04-03T09:12:12.766Z,24.20
2024-04-03T09:13:12.842Z,24.16
2024-04-03T09:14:13.850Z,24.22
2024-04-03T09:15:12.994Z,24.19
2024-04-03T09:16:13.073Z,24.22
2024-04-03T09:17:13.171Z,24.21
2024-04-03T09:18:13.250Z,24.16
2024-04-03T09:19:13.334Z,24.16
2024-04-03T09:20:13.407Z,24.27
2024-04-03T09:21:13.496Z,24.41
2024-04-03T09:22:14.334Z,24.75
2024-04-03T09:23:13.637Z,24.73
2024-04-03T09:24:13.799Z,24.65
2024-04-03T09:25:13.818Z,24.56
2024-04-03T09:26:13.880Z,24.59
2024-04-03T09:27:13.934Z,24.57
2024-04-03T09:28:14.008Z,24.59
2024-04-03T09:29:14.063Z,24.62
2024-04-03T09:30:14.151Z,24.47
2024-04-03T09:31:14.231Z,24.54
2024-04-03T09:32:14.278Z,24.56
2024-04-03T09:33:14.362Z,24.58
2024-04-03T09:34:14.436Z,24.73
2024-04-03T09:35:14.514Z,24.75
2024-04-03T09:36:14.590Z,24.73
2024-04-03T09:37:14.670Z,24.80
2024-04-03T09:38:14.764Z,24.80
2024-04-03T09:39:14.829Z,24.80
2024-04-03T09:40:14.898Z,24.83
2024-04-03T09:41:14.976Z,24.85
2024-04-03T09:42:15.035Z,24.80
2024-04-03T09:43:15.101Z,24.72
2024-04-03T09:44:15.303Z,24.72
2024-04-03T09:45:15.258Z,24.75
2024-04-03T09:46:15.314Z,24.78
2024-04-03T09:47:15.386Z,24.74
2024-04-03T09:48:15.455Z,24.67
2024-04-03T09:49:15.528Z,24.68
2024-04-03T09:50:15.600Z,24.64
2024-04-03T09:51:15.675Z,24.66
2024-04-03T09:52:15.751Z,24.72
2024-04-03T09:53:15.813Z,24.71
2024-04-03T09:54:15.881Z,24.75
2024-04-03T09:55:15.968Z,24.77
2024-04-03T09:56:16.023Z,24.75
2024-04-03T09:57:16.091Z,24.68
2024-04-03T09:58:16.166Z,24.66
2024-04-03T09:59:16.313Z,24.57
2024-04-03T10:00:16.813Z,24.55
2024-04-03T10:01:16.344Z,24.57
2024-04-03T10:02:17.314Z,24.52
2024-04-03T10:03:16.459Z,24.40
2024-04-03T10:04:17.315Z,24.45
2024-04-03T10:05:16.561Z,24.46
2024-04-03T10:06:16.625Z,24.52
2024-04-03T10:07:16.682Z,24.59
2024-04-03T10:08:16.740Z,24.62
2024-04-03T10:09:16.816Z,24.65
2024-04-03T10:10:16.874Z,24.62
2024-04-03T10:11:16.920Z,24.68
2024-04-03T10:12:16.967Z,24.71
2024-04-03T10:13:17.030Z,26.22
2024-04-03T10:14:17.085Z,26.95
2024-04-03T10:15:17.891Z,26.70
2024-04-03T10:16:17.191Z,27.52
2024-04-03T10:17:17.221Z,29.01
2024-04-03T10:18:17.245Z,28.97
2024-04-03T10:19:17.274Z,29.72
2024-04-03T10:20:18.276Z,28.78
2024-04-03T10:21:17.902Z,29.74
2024-04-03T10:22:17.281Z,29.06
2024-04-03T10:23:17.297Z,28.84
2024-04-03T10:24:17.296Z,29.13
2024-04-03T10:25:17.304Z,28.69
2024-04-03T10:26:17.294Z,28.33
2024-04-03T10:27:17.901Z,28.87
2024-04-03T10:28:17.302Z,28.82
2024-04-03T10:29:17.316Z,28.89
2024-04-03T10:30:17.316Z,28.72
2024-04-03T10:31:17.311Z,28.24
2024-04-03T10:32:17.321Z,28.95
2024-04-03T10:33:17.408Z,29.36
2024-04-03T10:34:17.463Z,28.58
2024-04-03T10:35:17.514Z,28.64
2024-04-03T10:36:17.549Z,28.70
2024-04-03T10:37:17.619Z,28.62
2024-04-03T10:38:17.691Z,28.76
2024-04-03T10:39:17.752Z,28.49
2024-04-03T10:40:17.810Z,28.46
2024-04-03T10:41:17.867Z,28.50
2024-04-03T10:42:18.012Z,28.80
2024-04-03T10:43:17.977Z,29.08
2024-04-03T10:44:18.042Z,28.83
2024-04-03T10:45:18.099Z,28.93
2024-04-03T10:46:18.156Z,28.63
2024-04-03T10:47:18.254Z,29.05
2024-04-03T10:48:18.275Z,28.70
2024-04-03T10:49:18.354Z,28.52
2024-04-03T10:50:18.407Z,28.61
2024-04-03T10:51:18.470Z,29.56
2024-04-03T10:52:18.539Z,29.32
2024-04-03T10:53:19.335Z,28.95
2024-04-03T10:54:18.653Z,28.97
2024-04-03T10:55:18.675Z,28.95
2024-04-03T10:56:18.723Z,28.72
2024-04-03T10:57:18.776Z,28.54
2024-04-03T10:58:18.833Z,28.34
2024-04-03T10:59:18.879Z,28.22
2024-04-03T11:00:18.956Z,27.90
2024-04-03T11:01:18.985Z,28.02
2024-04-03T11:02:19.155Z,28.09
2024-04-03T11:03:19.098Z,28.64
2024-04-03T11:04:19.157Z,29.42
2024-04-03T11:05:19.208Z,29.43
2024-04-03T11:06:19.256Z,29.65
2024-04-03T11:07:19.297Z,29.83
2024-04-03T11:08:19.321Z,29.89
2024-04-03T11:09:19.368Z,29.86
2024-04-03T11:10:19.399Z,29.88
2024-04-03T11:11:19.412Z,29.93
2024-04-03T11:12:19.461Z,29.95
2024-04-03T11:13:19.474Z,29.94
2024-04-03T11:14:19.536Z,29.92
2024-04-03T11:15:20.453Z,29.90
2024-04-03T11:16:20.543Z,29.93
2024-04-03T11:17:19.526Z,29.91
2024-04-03T11:18:19.514Z,29.92
2024-04-03T11:19:19.509Z,29.92
2024-04-03T11:20:19.510Z,29.94
2024-04-03T11:21:19.493Z,29.98
2024-04-03T11:22:19.488Z,29.98
2024-04-03T11:23:19.499Z,29.99
2024-04-03T11:24:19.487Z,30.03
2024-04-03T11:25:19.475Z,30.04
2024-04-03T11:26:19.460Z,30.06
2024-04-03T11:27:19.466Z,30.06
2024-04-03T11:28:19.481Z,30.10
2024-04-03T11:29:19.460Z,30.10
2024-04-03T11:30:19.447Z,30.13
2024-04-03T11:31:19.514Z,30.14
2024-04-03T11:32:19.426Z,30.16
2024-04-03T11:33:19.421Z,30.19
2024-04-03T11:34:19.543Z,30.21
2024-04-03T11:35:19.454Z,30.22
2024-04-03T11:36:19.408Z,30.21
2024-04-03T11:37:19.412Z,30.25
2024-04-03T11:38:19.408Z,30.25
2024-04-03T11:39:19.406Z,30.28
2024-04-03T11:40:19.391Z,30.29
2024-04-03T11:41:19.379Z,30.31
2024-04-03T11:42:19.372Z,30.32
2024-04-03T11:43:19.374Z,30.35
2024-04-03T11:44:19.378Z,30.38
2024-04-03T11:45:19.364Z,30.39
2024-04-03T11:46:21.997Z,30.38
2024-04-03T11:47:19.357Z,30.39
2024-04-03T11:48:19.347Z,30.43
2024-04-03T11:49:19.855Z,30.45
2024-04-03T11:50:19.939Z,30.45
2024-04-03T11:51:19.336Z,30.44
2024-04-03T11:52:19.317Z,30.44
2024-04-03T11:53:19.317Z,30.44
2024-04-03T11:54:19.319Z,30.46
2024-04-03T11:55:19.298Z,30.47
2024-04-03T11:56:19.283Z,30.46
2024-04-03T11:57:19.276Z,30.48
2024-04-03T11:58:19.275Z,30.49
2024-04-03T11:59:19.274Z,30.48
2024-04-03T12:00:19.271Z,30.51
2024-04-03T12:01:19.258Z,30.52
2024-04-03T12:02:19.235Z,30.53
2024-04-03T12:03:19.258Z,30.53
2024-04-03T12:04:19.220Z,30.56
2024-04-03T12:05:19.210Z,30.58
2024-04-03T12:06:19.217Z,30.58
2024-04-03T12:07:19.196Z,30.60
2024-04-03T12:08:19.197Z,30.62
2024-04-03T12:09:19.187Z,30.63
2024-04-03T12:10:20.959Z,30.62
2024-04-03T12:11:19.180Z,30.64
2024-04-03T12:12:19.176Z,30.67
2024-04-03T12:13:19.171Z,30.68
2024-04-03T12:14:19.231Z,30.69
2024-04-03T12:15:19.174Z,30.69
2024-04-03T12:16:19.953Z,30.71
2024-04-03T12:17:19.181Z,30.74
2024-04-03T12:18:19.160Z,30.73
2024-04-03T12:19:19.229Z,30.76
2024-04-03T12:20:19.161Z,30.76
2024-04-03T12:21:19.180Z,30.78
2024-04-03T12:22:19.308Z,30.81
2024-04-03T12:23:19.287Z,30.80
2024-04-03T12:24:19.311Z,30.81
2024-04-03T12:25:20.231Z,30.80
2024-04-03T12:26:19.396Z,30.84
2024-04-03T12:27:19.460Z,30.84
2024-04-03T12:28:19.497Z,30.84
2024-04-03T12:29:19.533Z,30.87
2024-04-03T12:30:19.581Z,30.88
2024-04-03T12:31:19.661Z,30.88
2024-04-03T12:32:19.661Z,30.88
2024-04-03T12:33:19.702Z,30.91
2024-04-03T12:34:19.760Z,30.92
2024-04-03T12:35:19.789Z,30.94
2024-04-03T12:36:32.831Z,30.94
2024-04-03T12:37:39.478Z,30.94
2024-04-03T12:38:26.490Z,30.97
2024-04-03T12:39:20.819Z,31.02
2024-04-03T12:40:19.812Z,31.02
2024-04-03T12:41:19.798Z,31.00
2024-04-03T12:42:19.793Z,30.98
2024-04-03T12:43:19.793Z,30.99
2024-04-03T12:44:19.787Z,31.03
2024-04-03T12:45:19.782Z,31.04
2024-04-03T12:46:19.776Z,31.03
2024-04-03T12:47:19.779Z,31.06
2024-04-03T12:48:19.756Z,31.09
2024-04-03T12:49:19.754Z,31.09
2024-04-03T12:50:19.738Z,31.10
2024-04-03T12:51:19.736Z,31.11
2024-04-03T12:52:19.723Z,31.08
2024-04-03T12:53:19.710Z,31.14